Time;durP1;ratioP1;P1;durP2;ratioP2;P2;SDS_P1;SDS_P2;PMS_P1;PMS_P2;Temp;Humidity;BMP_temperature;BMP_pressure;BME280_temperature;BME280_humidity;BME280_pressure;Samples;Min_cycle;Max_cycle;Signal;HPM_P1;HPM_P2
2022/08/10 00:00:29;;;;;;;2.35;1.80;;;15.00;99.90;;;;;;4956389;28;20641;-77
2022/08/10 00:02:59;;;;;;;1.50;1.33;;;15.00;99.90;;;;;;4955033;28;20213;-78
2022/08/10 00:05:26;;;;;;;2.47;1.55;;;15.00;99.90;;;;;;4957231;28;20189;-78
2022/08/10 00:07:52;;;;;;;3.28;1.58;;;15.00;99.90;;;;;;4955954;28;20257;-78
2022/08/10 00:10:20;;;;;;;2.13;1.50;;;15.00;99.90;;;;;;4956993;28;20641;-78
2022/08/10 00:12:46;;;;;;;2.03;1.52;;;15.00;99.90;;;;;;4956903;28;20255;-78
2022/08/10 00:15:14;;;;;;;3.35;1.52;;;15.00;1.00;;;;;;4956776;28;20277;-78
2022/08/10 00:17:40;;;;;;;2.13;1.42;;;15.00;99.90;;;;;;4952472;29;20225;-77
2022/08/10 00:20:06;;;;;;;1.88;1.40;;;14.90;99.90;;;;;;4955617;28;20209;-77
2022/08/10 00:22:32;;;;;;;3.25;1.90;;;14.90;1.00;;;;;;4955640;28;20604;-77
2022/08/10 00:24:58;;;;;;;2.40;1.63;;;14.90;1.00;;;;;;4970547;28;20202;-77
2022/08/10 00:27:24;;;;;;;1.60;1.50;;;14.90;1.00;;;;;;4955439;28;20217;-78
2022/08/10 00:29:50;;;;;;;2.13;1.30;;;14.90;1.00;;;;;;4955503;28;20542;-77
2022/08/10 00:32:15;;;;;;;2.20;1.58;;;14.80;1.00;;;;;;4956072;28;20205;-78
2022/08/10 00:34:41;;;;;;;1.85;1.70;;;14.70;1.00;;;;;;4965836;28;20237;-78
2022/08/10 00:37:07;;;;;;;1.70;1.60;;;14.60;1.00;;;;;;4954561;29;20197;-78
2022/08/10 00:39:32;;;;;;;1.80;1.70;;;14.60;1.00;;;;;;4955494;28;20209;-77
2022/08/10 00:41:58;;;;;;;3.03;1.73;;;14.50;1.00;;;;;;4955696;28;20181;-79
2022/08/10 00:44:24;;;;;;;1.52;1.42;;;14.50;1.00;;;;;;4955389;28;20178;-77
2022/08/10 00:46:49;;;;;;;2.40;1.55;;;14.50;1.00;;;;;;4956162;28;20208;-78
2022/08/10 00:49:15;;;;;;;4.28;1.65;;;14.50;1.00;;;;;;4956060;28;20209;-78
2022/08/10 00:51:41;;;;;;;1.73;1.63;;;14.50;1.00;;;;;;4956317;28;20222;-78
2022/08/10 00:54:07;;;;;;;3.17;1.48;;;14.60;1.00;;;;;;4954424;29;20202;-78
2022/08/10 00:56:33;;;;;;;2.45;1.80;;;14.50;1.00;;;;;;4955936;28;20190;-78
2022/08/10 00:58:59;;;;;;;4.32;1.75;;;14.40;1.00;;;;;;4955568;28;20253;-78
2022/08/10 01:01:25;;;;;;;3.70;1.52;;;14.40;1.00;;;;;;4953913;29;20189;-78
2022/08/10 01:03:51;;;;;;;3.42;2.10;;;14.50;1.00;;;;;;4953454;28;20309;-77
2022/08/10 01:06:34;;;;;;;1.55;1.45;;;14.40;1.00;;;;;;4955513;28;20193;-78
2022/08/10 01:09:00;;;;;;;2.03;1.60;;;14.40;1.00;;;;;;4951762;29;20200;-77
2022/08/10 01:11:54;;;;;;;2.88;1.70;;;14.40;1.00;;;;;;4955255;28;20189;-77
2022/08/10 01:14:38;;;;;;;2.38;1.83;;;14.30;1.00;;;;;;4953226;29;20273;-77
2022/08/10 01:17:31;;;;;;;3.75;1.73;;;14.40;1.00;;;;;;4954763;29;20189;-78
2022/08/10 01:20:15;;;;;;;3.03;1.70;;;14.30;1.00;;;;;;4950400;29;20619;-78
2022/08/10 01:23:05;;;;;;;1.90;1.60;;;14.30;1.00;;;;;;4951971;29;20201;-78
2022/08/10 01:25:51;;;;;;;2.30;2.00;;;14.20;1.00;;;;;;4953653;29;20185;-78
2022/08/10 01:28:44;;;;;;;3.65;2.00;;;14.10;1.00;;;;;;4953164;29;20280;-78
2022/08/10 01:31:14;;;;;;;3.33;1.83;;;14.20;1.00;;;;;;4953311;29;20181;-78
2022/08/10 01:33:46;;;;;;;3.03;2.00;;;14.10;1.00;;;;;;4959468;28;20223;-78
2022/08/10 01:36:16;;;;;;;2.30;2.10;;;14.10;1.00;;;;;;4955230;28;20213;-77
2022/08/10 01:38:48;;;;;;;2.60;2.00;;;14.10;1.00;;;;;;4954222;29;20607;-78
2022/08/10 01:41:21;;;;;;;2.20;2.00;;;14.20;1.00;;;;;;4952896;29;20193;-78
2022/08/10 01:44:04;;;;;;;2.65;1.92;;;14.30;1.00;;;;;;4951697;29;20269;-78
2022/08/10 01:46:31;;;;;;;1.67;1.58;;;14.30;1.00;;;;;;4953672;29;20660;-77
2022/08/10 01:49:00;;;;;;;1.92;1.70;;;14.60;1.00;;;;;;4969155;28;20240;-77
2022/08/10 01:51:31;;;;;;;1.92;1.73;;;14.30;1.00;;;;;;4953941;29;20200;-77
2022/08/10 01:54:09;;;;;;;2.10;1.75;;;14.30;1.00;;;;;;4952879;29;20201;-78
2022/08/10 01:56:47;;;;;;;2.67;2.15;;;14.30;1.00;;;;;;4954152;28;20181;-78
2022/08/10 01:59:22;;;;;;;3.08;1.83;;;14.30;1.00;;;;;;4953044;29;20264;-78
2022/08/10 02:01:51;;;;;;;1.98;1.73;;;14.30;1.00;;;;;;4959327;28;20668;-77
2022/08/10 02:04:19;;;;;;;3.50;1.90;;;14.30;1.00;;;;;;4968681;28;20189;-77
2022/08/10 02:06:49;;;;;;;1.88;1.73;;;14.20;1.00;;;;;;4951161;29;20553;-78
2022/08/10 02:09:19;;;;;;;2.38;2.17;;;14.40;1.00;;;;;;4952488;28;20213;-78
2022/08/10 02:11:45;;;;;;;2.00;1.83;;;14.30;1.00;;;;;;4952758;28;20202;-79
2022/08/10 02:14:13;;;;;;;3.65;2.10;;;14.20;1.00;;;;;;4954189;28;20658;-78
2022/08/10 02:16:43;;;;;;;2.88;1.88;;;14.10;1.00;;;;;;4952926;28;20260;-78
2022/08/10 02:19:13;;;;;;;2.20;1.95;;;14.10;1.00;;;;;;4953872;28;20185;-78
2022/08/10 02:21:39;;;;;;;2.75;2.00;;;14.10;1.00;;;;;;4951875;29;20200;-77
2022/08/10 02:24:07;;;;;;;2.85;2.30;;;14.00;1.00;;;;;;4953216;29;20292;-78
2022/08/10 02:26:33;;;;;;;2.25;1.90;;;14.10;1.00;;;;;;4952128;29;20264;-78
2022/08/10 02:29:00;;;;;;;2.88;1.98;;;14.00;1.00;;;;;;4952316;28;20252;-78
2022/08/10 02:31:28;;;;;;;2.70;1.73;;;14.00;1.00;;;;;;4953605;28;20185;-78
2022/08/10 02:33:56;;;;;;;2.78;1.95;;;14.00;1.00;;;;;;4952875;28;20205;-78
2022/08/10 02:36:23;;;;;;;2.15;1.98;;;14.00;1.00;;;;;;4953107;28;20645;-78
2022/08/10 02:38:56;;;;;;;3.35;2.25;;;13.90;1.00;;;;;;4951801;28;20686;-78
2022/08/10 02:41:36;;;;;;;2.35;2.15;;;13.90;1.00;;;;;;4952117;29;20277;-78
2022/08/10 02:44:09;;;;;;;2.28;2.08;;;14.30;1.00;;;;;;4952806;29;20209;-77
2022/08/10 02:46:44;;;;;;;3.53;2.53;;;13.70;1.00;;;;;;4952991;28;20758;-77
2022/08/10 02:49:20;;;;;;;4.28;2.00;;;13.60;1.00;;;;;;4952396;29;20295;-77
2022/08/10 02:52:02;;;;;;;2.30;2.10;;;13.60;1.00;;;;;;4950852;29;20205;-78
2022/08/10 02:54:34;;;;;;;2.60;2.40;;;13.70;1.00;;;;;;4953042;28;20213;-78
2022/08/10 02:57:15;;;;;;;2.60;2.40;;;13.70;1.00;;;;;;4953942;28;20208;-78
2022/08/10 02:59:44;;;;;;;2.78;2.30;;;13.70;1.00;;;;;;4951582;29;20188;-78
2022/08/10 03:02:15;;;;;;;3.30;2.13;;;13.60;1.00;;;;;;4949928;29;20214;-77
2022/08/10 03:04:45;;;;;;;3.33;2.22;;;13.60;1.00;;;;;;4959903;28;20190;-78
2022/08/10 03:07:16;;;;;;;6.03;2.15;;;13.60;1.00;;;;;;4952277;29;20182;-77
2022/08/10 03:09:43;;;;;;;3.30;2.30;;;13.60;1.00;;;;;;4952448;28;20193;-77
2022/08/10 03:12:12;;;;;;;2.47;2.28;;;13.60;1.00;;;;;;4952894;28;20205;-77
2022/08/10 03:14:39;;;;;;;3.55;2.33;;;13.60;1.00;;;;;;4952727;28;20239;-77
2022/08/10 03:17:06;;;;;;;3.00;2.70;;;13.60;1.00;;;;;;4952649;28;20743;-77
2022/08/10 03:19:33;;;;;;;3.70;2.85;;;13.60;1.00;;;;;;4953182;28;20193;-77
2022/08/10 03:22:01;;;;;;;4.72;2.67;;;13.50;1.00;;;;;;4952375;28;20236;-78
2022/08/10 03:24:27;;;;;;;3.08;2.58;;;13.60;1.00;;;;;;4952452;28;20185;-78
2022/08/10 03:26:54;;;;;;;3.88;2.70;;;13.60;1.00;;;;;;4950857;28;20185;-77
2022/08/10 03:29:21;;;;;;;2.33;2.13;;;13.50;1.00;;;;;;4956112;28;20208;-78
2022/08/10 03:31:48;;;;;;;2.65;2.42;;;13.50;1.00;;;;;;4955796;28;20228;-76
2022/08/10 03:34:15;;;;;;;4.60;2.50;;;13.50;1.00;;;;;;4956618;28;21076;-78
2022/08/10 03:36:42;;;;;;;3.55;2.55;;;13.50;1.00;;;;;;4956995;28;20236;-78
2022/08/10 03:39:08;;;;;;;3.53;2.67;;;13.50;1.00;;;;;;4955807;29;20587;-78
2022/08/10 03:41:36;;;;;;;4.30;2.70;;;13.60;1.00;;;;;;4955801;28;20186;-77
2022/08/10 03:44:04;;;;;;;3.88;2.35;;;13.60;1.00;;;;;;4961491;28;20695;-77
2022/08/10 03:46:32;;;;;;;3.22;2.50;;;13.50;1.00;;;;;;4955942;28;20719;-78
2022/08/10 03:49:01;;;;;;;4.28;2.63;;;13.50;1.00;;;;;;4950947;29;20241;-77
2022/08/10 03:51:27;;;;;;;2.60;2.30;;;13.50;1.00;;;;;;4961966;28;20181;-78
2022/08/10 03:53:53;;;;;;;3.78;2.50;;;13.50;1.00;;;;;;4955930;28;20226;-77
2022/08/10 03:56:20;;;;;;;2.60;2.40;;;13.50;1.00;;;;;;4955686;28;20217;-79
2022/08/10 03:58:46;;;;;;;2.55;2.33;;;13.50;1.00;;;;;;4956418;28;20191;-78
2022/08/10 04:01:13;;;;;;;2.80;2.50;;;13.60;1.00;;;;;;4956749;28;20197;-78
2022/08/10 04:03:39;;;;;;;2.85;2.58;;;13.50;1.00;;;;;;4956142;28;20197;-77
2022/08/10 04:06:05;;;;;;;2.83;2.55;;;13.50;1.00;;;;;;4954912;28;20627;-78
2022/08/10 04:08:31;;;;;;;3.75;2.90;;;13.50;1.00;;;;;;4957139;28;20210;-78
2022/08/10 04:10:57;;;;;;;4.28;3.05;;;13.50;1.00;;;;;;4954683;28;20192;-77
2022/08/10 04:13:22;;;;;;;3.28;2.80;;;13.40;1.00;;;;;;4955528;28;20210;-78
2022/08/10 04:15:48;;;;;;;5.53;3.05;;;13.30;1.00;;;;;;4955469;28;20182;-77
2022/08/10 04:18:14;;;;;;;3.75;2.95;;;13.40;1.00;;;;;;4955391;28;20185;-77
2022/08/10 04:20:44;;;;;;;4.22;2.63;;;13.30;1.00;;;;;;4955908;28;20564;-78
2022/08/10 04:23:20;;;;;;;3.13;2.72;;;13.20;1.00;;;;;;4956302;29;20233;-78
2022/08/10 04:25:46;;;;;;;3.38;2.78;;;13.20;1.00;;;;;;4955804;29;20239;-77
2022/08/10 04:28:12;;;;;;;3.35;3.05;;;13.20;1.00;;;;;;4953571;28;20704;-77
2022/08/10 04:30:39;;;;;;;3.97;2.90;;;13.20;1.00;;;;;;4953703;29;20209;-78
2022/08/10 04:33:07;;;;;;;2.83;2.60;;;13.30;1.00;;;;;;4954793;29;20205;-78
2022/08/10 04:35:33;;;;;;;3.15;2.80;;;13.40;1.00;;;;;;4954792;28;20217;-78
2022/08/10 04:38:01;;;;;;;2.95;2.65;;;13.40;1.00;;;;;;4954421;28;20248;-78
2022/08/10 04:40:27;;;;;;;2.97;2.45;;;13.50;1.00;;;;;;4954276;28;20922;-77
2022/08/10 04:42:53;;;;;;;2.80;2.50;;;13.50;1.00;;;;;;4955228;28;20658;-78
2022/08/10 04:45:18;;;;;;;3.00;2.40;;;13.60;1.00;;;;;;4956311;28;20200;-78
2022/08/10 04:47:44;;;;;;;4.40;2.80;;;13.60;1.00;;;;;;4968377;28;20217;-78
2022/08/10 04:50:10;;;;;;;2.80;2.60;;;13.70;1.00;;;;;;4956302;28;20268;-78
2022/08/10 04:52:35;;;;;;;3.03;2.72;;;13.80;1.00;;;;;;4956330;28;20213;-78
2022/08/10 04:55:01;;;;;;;3.03;2.30;;;13.80;1.00;;;;;;4955921;28;20663;-78
2022/08/10 04:57:26;;;;;;;2.67;2.40;;;13.90;1.00;;;;;;4955446;28;20181;-78
2022/08/10 04:59:52;;;;;;;4.78;2.10;;;14.10;1.00;;;;;;4955548;28;20193;-78
2022/08/10 05:02:18;;;;;;;2.80;2.50;;;14.30;1.00;;;;;;4956201;28;20229;-78
2022/08/10 05:04:43;;;;;;;2.92;2.33;;;14.40;1.00;;;;;;4955693;28;20272;-78
2022/08/10 05:07:14;;;;;;;3.97;2.40;;;14.50;1.00;;;;;;4954351;28;20181;-78
2022/08/10 05:09:40;;;;;;;3.70;2.70;;;14.60;1.00;;;;;;4953411;29;20265;-77
2022/08/10 05:12:06;;;;;;;4.22;2.40;;;14.80;1.00;;;;;;4952464;28;20620;-78
2022/08/10 05:14:32;;;;;;;3.35;2.40;;;15.30;1.00;;;;;;4952028;29;20220;-77
2022/08/10 05:16:58;;;;;;;3.53;2.10;;;16.40;1.00;;;;;;4952970;28;20209;-78
2022/08/10 05:19:25;;;;;;;2.42;2.20;;;17.40;65.00;;;;;;4954334;28;20667;-78
2022/08/10 05:21:51;;;;;;;3.05;1.80;;;18.50;99.90;;;;;;4954622;28;20192;-78
2022/08/10 05:24:16;;;;;;;2.25;1.73;;;19.50;1.00;;;;;;4955189;28;20186;-78
2022/08/10 05:26:42;;;;;;;4.45;2.00;;;20.30;1.00;;;;;;4953659;28;20185;-78
2022/08/10 05:29:07;;;;;;;2.28;1.60;;;20.90;1.00;;;;;;4954236;28;20237;-78
2022/08/10 05:31:33;;;;;;;3.15;2.05;;;21.30;99.90;;;;;;4954844;28;20257;-77
2022/08/10 05:33:58;;;;;;;1.80;1.50;;;21.20;99.90;;;;;;4954242;28;20261;-77
2022/08/10 05:36:24;;;;;;;1.90;1.52;;;21.90;1.00;;;;;;4954278;28;20677;-78
2022/08/10 05:38:50;;;;;;;2.22;1.92;;;22.50;1.00;;;;;;4952584;28;20209;-78
2022/08/10 05:41:16;;;;;;;4.47;1.83;;;23.00;1.00;;;;;;4953916;28;20196;-77
2022/08/10 05:43:43;;;;;;;2.90;2.15;;;23.20;99.90;;;;;;4953399;28;20719;-77
2022/08/10 05:46:09;;;;;;;2.47;1.80;;;23.20;99.90;;;;;;4953982;28;20181;-78
2022/08/10 05:48:36;;;;;;;1.65;1.52;;;23.30;99.90;;;;;;4953116;28;20605;-78
2022/08/10 05:51:02;;;;;;;1.60;1.50;;;23.30;99.90;;;;;;4952571;28;20200;-77
2022/08/10 05:53:28;;;;;;;2.90;1.42;;;23.60;99.90;;;;;;4951846;28;20297;-77
2022/08/10 05:55:54;;;;;;;2.65;2.00;;;23.80;99.90;;;;;;4953651;28;20265;-78
2022/08/10 05:58:19;;;;;;;2.17;1.50;;;24.00;99.90;;;;;;4953266;28;20633;-76
2022/08/10 06:00:52;;;;;;;2.10;1.90;;;24.50;99.90;;;;;;4952427;28;20193;-77
2022/08/10 06:03:24;;;;;;;5.70;2.00;;;23.90;99.90;;;;;;4961172;28;20337;-77
2022/08/10 06:05:53;;;;;;;3.45;1.95;;;23.80;99.90;;;;;;4952944;29;20181;-76
2022/08/10 06:08:22;;;;;;;2.42;1.75;;;24.20;99.90;;;;;;4951994;28;20231;-76
2022/08/10 06:10:52;;;;;;;2.80;1.63;;;24.40;99.90;;;;;;4952826;28;20186;-78
2022/08/10 06:16:06;;;;;;;4.43;1.92;;;24.50;99.90;;;;;;4951511;29;20205;-78
2022/08/10 06:18:32;;;;;;;3.65;2.42;;;24.30;99.90;;;;;;4952868;28;20281;-77
2022/08/10 06:20:59;;;;;;;2.10;1.90;;;24.30;99.90;;;;;;4952258;28;20590;-76
2022/08/10 06:23:27;;;;;;;2.85;2.05;;;24.50;99.90;;;;;;4952266;29;20577;-78
2022/08/10 06:25:54;;;;;;;3.15;1.95;;;24.80;99.90;;;;;;4951339;28;20645;-76
2022/08/10 06:28:21;;;;;;;4.78;2.10;;;24.70;99.90;;;;;;4951744;28;20209;-77
2022/08/10 06:30:49;;;;;;;2.25;1.70;;;25.00;99.90;;;;;;4950103;29;20181;-76
2022/08/10 06:33:16;;;;;;;3.75;2.28;;;25.30;99.90;;;;;;4952830;28;20296;-77
2022/08/10 06:35:42;;;;;;;3.30;2.10;;;25.70;99.90;;;;;;4959878;28;20189;-78
2022/08/10 06:38:09;;;;;;;5.65;2.00;;;26.10;99.90;;;;;;4952067;28;20263;-78
2022/08/10 06:40:38;;;;;;;2.42;1.80;;;26.30;99.90;;;;;;4952124;28;20602;-77
2022/08/10 06:43:08;;;;;;;2.60;2.08;;;26.70;99.90;;;;;;4952256;29;20201;-77
2022/08/10 06:45:44;;;;;;;2.63;2.00;;;26.80;99.90;;;;;;4951270;29;20189;-78
2022/08/10 06:48:36;;;;;;;2.53;1.70;;;27.10;99.90;;;;;;4951864;29;20192;-78
2022/08/10 06:51:05;;;;;;;3.70;2.00;;;26.90;99.90;;;;;;4946346;29;20217;-78
2022/08/10 06:53:44;;;;;;;3.53;1.98;;;26.80;99.90;;;;;;4951609;29;20208;-77
2022/08/10 06:56:13;;;;;;;4.60;2.40;;;26.80;99.90;;;;;;4951591;29;20178;-78
2022/08/10 06:58:46;;;;;;;3.20;2.10;;;27.10;94.40;;;;;;4951829;29;20192;-78
2022/08/10 07:01:14;;;;;;;2.88;1.98;;;26.90;85.40;;;;;;4951352;29;21021;-77
2022/08/10 07:03:58;;;;;;;2.38;2.03;;;26.60;77.70;;;;;;4951007;28;20296;-77
2022/08/10 07:06:25;;;;;;;3.78;2.33;;;26.10;95.10;;;;;;4958122;28;20185;-77
2022/08/10 07:08:52;;;;;;;3.03;2.30;;;25.40;99.90;;;;;;4950550;29;20213;-77
2022/08/10 07:11:20;;;;;;;2.30;2.10;;;25.00;99.90;;;;;;4950712;28;20332;-77
2022/08/10 07:13:47;;;;;;;3.25;2.00;;;25.40;99.90;;;;;;4949912;29;20874;-75
2022/08/10 07:16:14;;;;;;;3.50;2.20;;;25.30;99.90;;;;;;4950703;28;20683;-77
2022/08/10 07:18:41;;;;;;;3.08;2.15;;;25.40;99.90;;;;;;4949843;29;20264;-77
2022/08/10 07:21:09;;;;;;;3.28;2.40;;;25.40;99.90;;;;;;4950556;28;20201;-77
2022/08/10 07:23:35;;;;;;;2.50;2.00;;;25.30;99.90;;;;;;4950041;29;20592;-77
2022/08/10 07:26:03;;;;;;;2.20;2.00;;;25.00;99.90;;;;;;4950383;28;20197;-76
2022/08/10 07:28:32;;;;;;;3.22;2.38;;;24.70;99.90;;;;;;4950515;28;20288;-77
2022/08/10 07:30:59;;;;;;;3.88;2.28;;;24.50;99.90;;;;;;4949875;29;20182;-77
2022/08/10 07:33:27;;;;;;;3.28;2.10;;;24.30;99.90;;;;;;4948255;29;20781;-77
2022/08/10 07:35:56;;;;;;;3.97;1.90;;;24.20;99.90;;;;;;4950005;28;20182;-77
2022/08/10 07:38:29;;;;;;;4.63;2.33;;;24.10;99.90;;;;;;4949688;28;20208;-77
2022/08/10 07:40:57;;;;;;;3.88;2.20;;;24.00;99.90;;;;;;4948685;29;20190;-77
2022/08/10 07:43:25;;;;;;;3.85;2.10;;;23.70;99.90;;;;;;4946726;29;20205;-76
2022/08/10 07:45:52;;;;;;;6.10;2.63;;;23.70;99.90;;;;;;4947012;28;20232;-78
2022/08/10 07:48:26;;;;;;;2.05;1.85;;;23.30;99.90;;;;;;4949478;28;20249;-78
2022/08/10 07:50:58;;;;;;;3.47;2.00;;;23.20;99.90;;;;;;4948951;29;20193;-77
2022/08/10 07:53:26;;;;;;;2.17;1.88;;;23.40;99.90;;;;;;4963711;28;20703;-77
2022/08/10 07:55:54;;;;;;;4.57;2.00;;;23.40;99.90;;;;;;4957390;28;20197;-77
2022/08/10 07:58:26;;;;;;;3.60;1.85;;;23.60;99.90;;;;;;4964170;28;20192;-78
2022/08/10 08:00:52;;;;;;;3.00;2.28;;;23.70;99.90;;;;;;4949717;28;20189;-77
2022/08/10 08:03:23;;;;;;;4.50;1.90;;;23.80;99.90;;;;;;4957979;28;20243;-77
2022/08/10 08:05:50;;;;;;;3.85;2.10;;;23.90;99.90;;;;;;4949033;28;20193;-77
2022/08/10 08:08:19;;;;;;;6.00;2.40;;;23.70;99.90;;;;;;4948297;29;20238;-77
2022/08/10 08:10:46;;;;;;;6.30;2.05;;;23.70;99.90;;;;;;4949197;29;20185;-77
2022/08/10 08:13:13;;;;;;;3.13;1.80;;;23.70;99.90;;;;;;4947538;28;20620;-77
2022/08/10 08:15:40;;;;;;;2.47;1.92;;;23.60;99.90;;;;;;4956282;28;20185;-77
2022/08/10 08:18:07;;;;;;;2.20;2.00;;;23.70;99.90;;;;;;4952375;29;20554;-77
2022/08/10 08:20:33;;;;;;;3.78;2.10;;;23.60;99.90;;;;;;4952713;29;20674;-77
2022/08/10 08:22:59;;;;;;;3.53;1.80;;;23.60;99.90;;;;;;4952084;29;20209;-77
2022/08/10 08:25:25;;;;;;;3.63;2.03;;;23.80;99.90;;;;;;4952813;28;20193;-77
2022/08/10 08:27:54;;;;;;;3.38;1.88;;;23.90;99.90;;;;;;4952825;28;20699;-77
2022/08/10 08:30:21;;;;;;;2.90;1.70;;;23.80;99.90;;;;;;4952660;29;20185;-77
2022/08/10 08:32:48;;;;;;;2.75;1.70;;;23.90;99.90;;;;;;4959704;28;20209;-77
2022/08/10 08:35:16;;;;;;;2.40;1.95;;;24.10;99.90;;;;;;4952928;28;20606;-77
2022/08/10 08:37:45;;;;;;;2.88;1.92;;;24.30;99.90;;;;;;4967024;28;20657;-77
2022/08/10 08:40:14;;;;;;;4.20;2.00;;;24.20;99.90;;;;;;4952518;28;20197;-77
2022/08/10 08:42:58;;;;;;;2.67;2.00;;;24.20;99.90;;;;;;4952949;29;20214;-77
2022/08/10 08:46:05;;;;;;;1.98;1.60;;;24.20;99.90;;;;;;4953176;29;20732;-77
2022/08/10 08:48:47;;;;;;;1.98;1.75;;;24.30;99.90;;;;;;4951904;28;20226;-77
2022/08/10 08:51:17;;;;;;;3.17;1.90;;;24.50;99.90;;;;;;4952240;28;20183;-78
2022/08/10 08:54:01;;;;;;;2.50;1.90;;;24.60;99.90;;;;;;4952781;29;20312;-78
2022/08/10 08:56:52;;;;;;;1.55;1.40;;;24.50;99.90;;;;;;4952603;28;20623;-77
2022/08/10 08:59:41;;;;;;;1.88;1.40;;;24.50;90.50;;;;;;4951560;29;20252;-77
2022/08/10 09:02:42;;;;;;;1.58;1.40;;;24.40;65.40;;;;;;4950480;29;20209;-78
2022/08/10 09:05:32;;;;;;;2.55;1.38;;;24.40;59.30;;;;;;4944282;29;20553;-76
2022/08/10 09:08:15;;;;;;;4.65;1.77;;;24.50;62.90;;;;;;4940006;29;20719;-78
2022/08/10 09:11:07;;;;;;;3.45;1.45;;;24.60;56.30;;;;;;4952194;29;20240;-77
2022/08/10 09:13:57;;;;;;;2.50;1.48;;;24.70;38.20;;;;;;4952190;28;20229;-77
2022/08/10 09:16:46;;;;;;;1.75;1.20;;;24.90;25.90;;;;;;4951052;28;20192;-78
2022/08/10 09:19:32;;;;;;;2.95;1.42;;;24.90;18.50;;;;;;4951946;29;20585;-76
2022/08/10 09:22:04;;;;;;;1.85;1.33;;;24.90;8.00;;;;;;4952481;29;20189;-77
2022/08/10 09:24:47;;;;;;;1.70;1.23;;;25.00;1.00;;;;;;4952622;28;20648;-77
2022/08/10 09:27:22;;;;;;;2.20;1.30;;;24.70;1.00;;;;;;4951330;29;20260;-76
2022/08/10 09:30:04;;;;;;;3.00;1.30;;;24.90;1.50;;;;;;4947752;29;20735;-75
2022/08/10 09:32:43;;;;;;;2.45;1.40;;;25.20;1.00;;;;;;4951083;29;20731;-77
2022/08/10 09:35:45;;;;;;;4.30;1.90;;;25.30;1.00;;;;;;4942132;28;20559;-77
2022/08/10 09:38:33;;;;;;;3.10;1.33;;;25.30;1.00;;;;;;4950986;28;20236;-76
2022/08/10 09:41:10;;;;;;;2.13;1.20;;;25.40;1.00;;;;;;4950885;29;20193;-77
2022/08/10 09:43:42;;;;;;;2.50;1.33;;;25.20;1.00;;;;;;4943418;29;20209;-77
2022/08/10 09:46:07;;;;;;;3.83;1.40;;;25.40;1.00;;;;;;4944378;29;20189;-78
2022/08/10 09:48:53;;;;;;;1.38;1.17;;;25.40;1.00;;;;;;4951896;28;20585;-78
2022/08/10 09:51:30;;;;;;;2.50;1.25;;;25.60;1.00;;;;;;4967667;28;20186;-78
2022/08/10 09:54:26;;;;;;;3.75;1.52;;;25.70;1.00;;;;;;4953109;29;20209;-77
2022/08/10 09:57:30;;;;;;;2.00;1.17;;;25.50;1.00;;;;;;4952123;28;20735;-77
2022/08/10 10:00:00;;;;;;;2.85;1.42;;;25.20;1.00;;;;;;4952416;29;20193;-77
2022/08/10 10:03:00;;;;;;;4.57;1.50;;;25.30;1.00;;;;;;4952800;28;20652;-78
2022/08/10 10:05:35;;;;;;;1.75;1.23;;;25.50;1.00;;;;;;4951874;29;20248;-78
2022/08/10 10:08:12;;;;;;;1.75;1.23;;;25.80;1.00;;;;;;4951118;29;20201;-78
2022/08/10 10:10:58;;;;;;;2.83;1.52;;;26.00;1.00;;;;;;4952383;29;20181;-78
2022/08/10 10:13:46;;;;;;;1.92;1.10;;;26.20;1.00;;;;;;4950976;29;20202;-77
2022/08/10 10:16:22;;;;;;;1.92;1.30;;;26.30;1.00;;;;;;4922491;29;20200;-77
2022/08/10 10:19:20;;;;;;;4.68;1.75;;;26.50;1.00;;;;;;4952177;28;20244;-77
2022/08/10 10:21:52;;;;;;;1.15;1.00;;;26.30;1.00;;;;;;4928971;28;20201;-78
2022/08/10 10:24:23;;;;;;;5.50;1.27;;;26.10;1.00;;;;;;4951387;29;20245;-77
2022/08/10 10:27:27;;;;;;;1.60;1.30;;;26.00;1.00;;;;;;4949211;29;20196;-76
2022/08/10 10:30:13;;;;;;;2.38;1.20;;;26.10;1.00;;;;;;4943255;29;20193;-77
2022/08/10 10:33:04;;;;;;;2.38;1.30;;;26.40;1.00;;;;;;4951022;29;20209;-77
2022/08/10 10:35:51;;;;;;;1.92;1.40;;;26.70;1.00;;;;;;4951357;29;20197;-78
2022/08/10 10:38:19;;;;;;;1.38;1.20;;;26.60;1.00;;;;;;4951119;28;20280;-78
2022/08/10 10:40:58;;;;;;;2.45;1.48;;;26.70;1.00;;;;;;4952043;29;20185;-78
2022/08/10 10:43:32;;;;;;;1.75;1.30;;;26.80;1.00;;;;;;4951940;28;20203;-77
2022/08/10 10:46:10;;;;;;;2.08;1.15;;;27.00;1.00;;;;;;4950982;29;20220;-77
2022/08/10 10:48:54;;;;;;;1.92;1.40;;;27.10;1.00;;;;;;4950942;29;20264;-78
2022/08/10 10:51:31;;;;;;;4.65;1.40;;;27.10;1.00;;;;;;4940191;28;20686;-77
2022/08/10 10:54:18;;;;;;;2.03;1.40;;;27.00;1.00;;;;;;4951518;28;20197;-78
2022/08/10 10:57:16;;;;;;;2.78;1.50;;;26.70;1.00;;;;;;4951706;29;20276;-78
2022/08/10 10:59:55;;;;;;;2.25;1.10;;;26.80;1.00;;;;;;4951332;29;20181;-76
2022/08/10 11:02:42;;;;;;;1.38;1.17;;;27.20;1.00;;;;;;4950893;29;20300;-77
2022/08/10 11:05:38;;;;;;;5.72;1.48;;;27.20;1.00;;;;;;4942083;29;20189;-78
2022/08/10 11:08:08;;;;;;;2.88;1.67;;;26.90;1.00;;;;;;4950111;28;20217;-77
2022/08/10 11:10:44;;;;;;;2.33;1.40;;;26.40;1.00;;;;;;4950754;29;20182;-77
2022/08/10 11:13:28;;;;;;;1.73;1.40;;;26.30;1.00;;;;;;4950815;29;20197;-77
2022/08/10 11:16:23;;;;;;;2.88;1.10;;;26.40;1.00;;;;;;4941376;29;20216;-78
2022/08/10 11:19:16;;;;;;;1.40;1.20;;;26.20;1.00;;;;;;4950425;28;20189;-78
2022/08/10 11:21:56;;;;;;;2.67;1.50;;;26.30;1.00;;;;;;4950398;28;20186;-78
2022/08/10 11:24:36;;;;;;;3.35;1.30;;;26.40;1.00;;;;;;4950458;28;20300;-77
2022/08/10 11:27:23;;;;;;;4.30;1.58;;;26.30;1.00;;;;;;4948059;28;20194;-77
2022/08/10 11:29:59;;;;;;;4.32;1.60;;;26.30;1.00;;;;;;4949108;29;20193;-76
2022/08/10 11:33:05;;;;;;;3.10;1.33;;;26.20;1.00;;;;;;4949284;29;20767;-77
2022/08/10 11:35:42;;;;;;;3.83;1.40;;;25.80;1.00;;;;;;4946437;29;20755;-77
2022/08/10 11:38:18;;;;;;;1.40;1.30;;;25.70;1.00;;;;;;4949508;29;20339;-78
2022/08/10 11:40:57;;;;;;;1.15;1.13;;;26.00;1.00;;;;;;4950559;29;20177;-77
2022/08/10 11:43:27;;;;;;;3.47;1.50;;;26.20;1.00;;;;;;4951651;29;20213;-77
2022/08/10 11:46:09;;;;;;;4.88;1.30;;;26.10;1.00;;;;;;4952376;28;20186;-77
2022/08/10 11:48:43;;;;;;;1.88;1.27;;;25.80;1.00;;;;;;4952281;28;20228;-76
2022/08/10 11:51:23;;;;;;;1.30;1.20;;;26.00;1.00;;;;;;4954370;29;20664;-76
2022/08/10 11:53:58;;;;;;;2.75;1.27;;;26.00;1.00;;;;;;4953855;29;20249;-78
2022/08/10 11:56:30;;;;;;;2.95;1.40;;;26.00;1.00;;;;;;4956034;28;20272;-77
2022/08/10 12:01:44;;;;;;;3.10;1.50;;;25.90;1.00;;;;;;4957223;29;20618;-77
2022/08/10 12:04:12;;;;;;;3.22;1.70;;;25.70;1.00;;;;;;4961535;28;20225;-76
2022/08/10 12:06:40;;;;;;;2.25;1.30;;;25.80;1.00;;;;;;4955398;28;20178;-78
2022/08/10 12:09:07;;;;;;;1.50;1.00;;;26.00;1.00;;;;;;4955306;29;20646;-78
2022/08/10 12:11:34;;;;;;;1.40;1.30;;;26.10;1.00;;;;;;4954637;28;20178;-78
2022/08/10 12:14:24;;;;;;;2.55;1.10;;;26.30;1.00;;;;;;4955301;28;20318;-77
2022/08/10 12:17:08;;;;;;;2.08;1.10;;;26.50;1.00;;;;;;4953587;29;20185;-78
2022/08/10 12:20:01;;;;;;;1.83;1.30;;;26.30;1.00;;;;;;4954951;29;20189;-76
2022/08/10 12:22:55;;;;;;;2.58;1.30;;;26.50;1.00;;;;;;4954444;29;20213;-76
2022/08/10 12:25:36;;;;;;;4.90;1.30;;;26.70;1.00;;;;;;4951008;29;20627;-78
2022/08/10 12:28:12;;;;;;;4.50;1.80;;;26.70;1.00;;;;;;4955372;28;20232;-78
2022/08/10 12:30:44;;;;;;;3.22;1.67;;;26.80;1.00;;;;;;4955699;29;20174;-77
2022/08/10 12:33:18;;;;;;;3.65;1.70;;;26.60;1.00;;;;;;4954516;29;20201;-77
2022/08/10 12:36:06;;;;;;;4.03;1.40;;;26.70;1.00;;;;;;4955541;28;20177;-78
2022/08/10 12:38:55;;;;;;;3.40;1.40;;;26.80;1.00;;;;;;4954091;29;20211;-76
2022/08/10 12:41:28;;;;;;;2.92;1.60;;;26.60;1.00;;;;;;4955468;29;20759;-76
2022/08/10 12:44:07;;;;;;;2.15;1.50;;;26.80;1.00;;;;;;4953950;29;20508;-77
2022/08/10 12:46:57;;;;;;;2.75;1.45;;;26.70;1.00;;;;;;4954346;29;20221;-76
2022/08/10 12:49:38;;;;;;;5.72;1.60;;;26.60;1.00;;;;;;4952998;28;20587;-77
2022/08/10 12:52:18;;;;;;;3.28;1.40;;;26.80;1.00;;;;;;4944887;29;20688;-76
2022/08/10 12:54:45;;;;;;;3.38;1.30;;;26.60;1.00;;;;;;4953537;28;20554;-79
2022/08/10 12:57:16;;;;;;;1.90;1.42;;;26.60;1.00;;;;;;4950442;28;20742;-78
2022/08/10 12:59:46;;;;;;;2.50;1.10;;;26.80;1.00;;;;;;4961168;28;20243;-77
2022/08/10 13:02:26;;;;;;;2.45;1.60;;;26.80;1.00;;;;;;4956222;29;20205;-78
2022/08/10 13:05:01;;;;;;;3.08;1.38;;;26.70;1.00;;;;;;4956302;29;20173;-79
2022/08/10 13:07:35;;;;;;;4.05;1.40;;;26.60;1.00;;;;;;4956837;29;20572;-78
2022/08/10 13:10:06;;;;;;;2.20;1.30;;;26.70;1.00;;;;;;4955850;29;20181;-77
2022/08/10 13:12:36;;;;;;;2.55;1.50;;;27.00;1.00;;;;;;4957410;28;20209;-78
2022/08/10 13:15:24;;;;;;;2.17;1.33;;;27.40;1.00;;;;;;4957087;28;20182;-78
2022/08/10 13:17:52;;;;;;;2.38;1.50;;;27.50;1.00;;;;;;4954196;29;20185;-76
2022/08/10 13:20:25;;;;;;;3.75;1.75;;;27.60;1.00;;;;;;4955563;29;20192;-77
2022/08/10 13:22:55;;;;;;;1.58;1.20;;;27.90;1.00;;;;;;4961984;28;20209;-76
2022/08/10 13:25:28;;;;;;;2.90;1.30;;;28.10;1.00;;;;;;4955047;29;20181;-78
2022/08/10 13:27:58;;;;;;;2.35;1.35;;;28.00;1.00;;;;;;4955430;29;20629;-76